Time;durP1;ratioP1;P1;durP2;ratioP2;P2;SDS_P1;SDS_P2;PMS_P1;PMS_P2;Temp;Humidity;BMP_temperature;BMP_pressure;BME280_temperature;BME280_humidity;BME280_pressure;Samples;Min_cycle;Max_cycle;Signal;HPM_P1;HPM_P2
2022/03/12 00:00:21;;;;;;;;;4.00;4.00;;;;;11.09;64.35;100633.31;5055552;28;45270;-72
2022/03/12 00:02:47;;;;;;;;;5.25;5.00;;;;;11.10;64.23;100647.56;5044366;28;45555;-71
2022/03/12 00:05:13;;;;;;;;;8.50;6.75;;;;;11.56;64.58;100732.41;5061017;28;45280;-71
2022/03/12 00:07:42;;;;;;;;;4.00;4.00;;;;;11.41;64.95;100738.31;5061033;28;45449;-72
2022/03/12 00:10:13;;;;;;;;;7.00;4.25;;;;;10.39;64.72;100555.97;5059958;28;45417;-71
2022/03/12 00:12:40;;;;;;;;;3.00;3.00;;;;;10.91;64.53;100683.69;5061043;28;45949;-71
2022/03/12 00:15:09;;;;;;;;;10.25;8.50;;;;;10.87;64.48;100637.25;5068682;28;45172;-71
2022/03/12 00:17:36;;;;;;;;;4.00;4.00;;;;;10.43;64.12;100557.88;5065392;28;45110;-71
2022/03/12 00:20:10;;;;;;;;;6.00;6.00;;;;;11.04;64.40;100675.97;5070779;28;45199;-71
2022/03/12 00:22:37;;;;;;;;;29.00;20.50;;;;;10.92;64.89;100648.06;5065443;28;45728;-72
2022/03/12 00:25:11;;;;;;;;;6.00;6.00;;;;;10.92;64.63;100674.78;5067907;28;44934;-70
2022/03/12 00:27:41;;;;;;;;;5.00;5.00;;;;;11.42;65.02;100752.63;5051170;28;44977;-71
2022/03/12 00:30:09;;;;;;;;;6.00;4.00;;;;;10.61;64.63;100612.56;5051622;28;45412;-72
2022/03/12 00:32:36;;;;;;;;;4.50;3.00;;;;;11.06;64.61;100710.78;5062004;28;45499;-71
2022/03/12 00:35:04;;;;;;;;;6.25;6.25;;;;;10.29;64.65;100608.22;5066373;28;45054;-71
2022/03/12 00:37:29;;;;;;;;;4.25;4.00;;;;;10.17;64.64;100561.63;5050393;28;45190;-72
2022/03/12 00:39:55;;;;;;;;;9.50;5.50;;;;;11.41;64.75;100746.34;5058413;28;45145;-71
2022/03/12 00:42:20;;;;;;;;;5.75;2.75;;;;;10.70;64.01;100628.84;5047882;28;45507;-69
2022/03/12 00:44:45;;;;;;;;;15.75;12.25;;;;;11.41;63.99;100756.16;5048964;28;45159;-71
2022/03/12 00:47:14;;;;;;;;;25.75;22.75;;;;;11.46;64.42;100797.28;5061691;27;45180;-71
2022/03/12 00:49:40;;;;;;;;;8.00;7.00;;;;;11.58;64.00;100789.56;5063435;28;45221;-70
2022/03/12 00:52:05;;;;;;;;;8.50;5.50;;;;;11.53;63.94;100763.53;5068263;28;45605;-72
2022/03/12 00:54:31;;;;;;;;;23.75;15.75;;;;;11.12;64.21;100696.63;5059198;28;45028;-72
2022/03/12 00:56:57;;;;;;;;;6.25;4.25;;;;;11.42;64.35;100752.63;5064163;28;44976;-70
2022/03/12 00:59:22;;;;;;;;;7.25;6.00;;;;;10.11;63.65;100536.59;5066831;28;44997;-72
2022/03/12 01:01:47;;;;;;;;;7.00;6.25;;;;;11.62;63.70;100795.88;5069083;28;45653;-71
2022/03/12 01:04:13;;;;;;;;;12.00;6.75;;;;;10.57;63.54;100622.28;5069084;28;45636;-71
2022/03/12 01:06:38;;;;;;;;;6.00;4.25;;;;;11.04;63.72;100677.75;5070189;28;45426;-72
2022/03/12 01:09:04;;;;;;;;;5.00;3.25;;;;;10.41;63.51;100605.00;5071123;28;45099;-71
2022/03/12 01:11:30;;;;;;;;;4.00;4.00;;;;;10.81;63.32;100640.69;5070526;28;45897;-71
2022/03/12 01:13:56;;;;;;;;;3.50;3.50;;;;;10.14;63.49;100539.31;5071674;28;45109;-70
2022/03/12 01:16:22;;;;;;;;;2.25;2.25;;;;;11.55;63.48;100809.97;5070839;28;45237;-71
2022/03/12 01:18:47;;;;;;;;;3.25;3.00;;;;;11.66;63.36;100835.22;5068617;28;45156;-72
2022/03/12 01:21:17;;;;;;;;;4.00;4.00;;;;;11.66;62.94;100820.94;5070600;28;45477;-73
2022/03/12 01:23:44;;;;;;;;;5.00;2.00;;;;;11.52;63.93;100805.47;5070931;28;45098;-72
2022/03/12 01:26:10;;;;;;;;;2.00;1.50;;;;;11.55;64.02;100837.66;5070157;28;45281;-71
2022/03/12 01:28:37;;;;;;;;;4.75;3.00;;;;;11.31;63.80;100779.09;5071066;28;45158;-72
2022/03/12 01:31:03;;;;;;;;;4.00;4.00;;;;;11.44;63.68;100793.69;5070771;28;45835;-72
2022/03/12 01:33:29;;;;;;;;;4.00;3.50;;;;;11.61;63.13;100826.16;5070473;28;45138;-72
2022/03/12 01:35:54;;;;;;;;;2.25;2.25;;;;;11.47;63.14;100800.88;5071296;28;45100;-70
2022/03/12 01:38:29;;;;;;;;;3.00;3.00;;;;;11.31;63.29;100787.13;5088097;27;45020;-71
2022/03/12 01:40:55;;;;;;;;;3.25;3.25;;;;;11.19;63.64;100769.03;5074602;28;45595;-71
2022/03/12 01:43:21;;;;;;;;;6.75;5.50;;;;;11.23;63.74;100765.53;5072110;28;45139;-70
2022/03/12 01:45:47;;;;;;;;;2.00;2.00;;;;;11.46;63.87;100807.97;5067067;28;45191;-72
2022/03/12 01:48:12;;;;;;;;;3.75;3.75;;;;;10.75;63.34;100707.34;5063288;28;45009;-72
2022/03/12 01:50:38;;;;;;;;;36.50;27.50;;;;;11.30;63.91;100801.38;5070563;28;46369;-72
2022/03/12 01:53:09;;;;;;;;;4.50;3.00;;;;;11.23;63.86;100794.06;5074470;28;45328;-71
2022/03/12 01:55:39;;;;;;;;;4.00;2.75;;;;;11.42;64.12;100808.78;5073982;28;44945;-71
2022/03/12 01:58:06;;;;;;;;;8.50;4.50;;;;;11.43;64.13;100821.28;5074922;28;45122;-71
2022/03/12 02:00:43;;;;;;;;;6.75;5.00;;;;;10.97;64.11;100746.22;5073889;28;46273;-72
2022/03/12 02:03:08;;;;;;;;;3.25;3.25;;;;;11.06;64.24;100774.94;5075348;28;45257;-71
2022/03/12 02:05:35;;;;;;;;;4.75;3.50;;;;;11.10;64.30;100774.13;5062468;28;45066;-70
2022/03/12 02:08:01;;;;;;;;;4.00;4.00;;;;;11.43;63.87;100827.56;5074228;28;45351;-70
2022/03/12 02:10:27;;;;;;;;;2.75;2.75;;;;;11.36;64.16;100835.38;5073756;28;45247;-72
2022/03/12 02:12:53;;;;;;;;;4.00;2.75;;;;;11.42;64.22;100855.16;5073511;28;45179;-73
2022/03/12 02:15:20;;;;;;;;;4.50;3.00;;;;;11.29;63.88;100837.00;5073670;28;45158;-71
2022/03/12 02:17:46;;;;;;;;;3.50;3.00;;;;;11.36;64.42;100843.41;5074136;28;45128;-73
2022/03/12 02:20:14;;;;;;;;;3.00;3.00;;;;;11.32;64.59;100849.53;5073544;28;45233;-71
2022/03/12 02:22:40;;;;;;;;;5.00;4.00;;;;;11.13;64.83;100827.69;5071538;28;45087;-71
2022/03/12 02:25:05;;;;;;;;;3.50;3.00;;;;;11.09;64.06;100828.50;5073695;28;44989;-72
2022/03/12 02:27:32;;;;;;;;;3.00;3.00;;;;;11.24;64.51;100846.69;5074454;28;45083;-72
2022/03/12 02:29:59;;;;;;;;;2.00;2.00;;;;;11.03;64.24;100833.66;5072952;28;45079;-72
2022/03/12 02:32:25;;;;;;;;;5.75;4.50;;;;;11.19;63.95;100846.56;5072945;28;45108;-72
2022/03/12 02:34:51;;;;;;;;;4.75;3.00;;;;;11.01;64.29;100825.59;5072761;28;45177;-70
2022/03/12 02:37:52;;;;;;;;;5.50;3.75;;;;;11.11;63.99;100837.44;5064645;28;45200;-71
2022/03/12 02:40:13;;;;;;;;;6.00;5.25;;;;;10.91;63.80;100820.91;5072793;28;45997;-71
2022/03/12 02:42:39;;;;;;;;;6.75;3.50;;;;;10.86;63.77;100799.38;5073649;28;45177;-72
2022/03/12 02:45:07;;;;;;;;;3.00;3.00;;;;;11.02;64.40;100842.53;5073419;28;45120;-71
2022/03/12 02:47:34;;;;;;;;;5.00;3.00;;;;;11.00;64.51;100838.94;5071309;28;44905;-72
2022/03/12 02:50:06;;;;;;;;;4.00;2.50;;;;;10.79;64.61;100807.19;5073091;28;45925;-71
2022/03/12 02:52:37;;;;;;;;;2.00;2.00;;;;;10.96;64.64;100843.31;5060106;28;45063;-71
2022/03/12 02:55:02;;;;;;;;;4.25;4.25;;;;;10.67;64.48;100803.38;5068091;28;45174;-71
2022/03/12 02:57:28;;;;;;;;;5.25;0.50;;;;;10.63;64.11;100813.91;5073438;28;45154;-73
2022/03/12 02:59:56;;;;;;;;;5.50;3.75;;;;;10.63;64.68;100809.47;5069339;28;45611;-72
2022/03/12 03:02:40;;;;;;;;;4.50;3.00;;;;;10.80;64.90;100841.97;5071180;28;44949;-72
2022/03/12 03:05:38;;;;;;;;;5.00;3.00;;;;;10.83;64.89;100859.88;5067204;28;45013;-72
2022/03/12 03:08:05;;;;;;;;;3.25;3.00;;;;;10.78;64.66;100846.38;5073214;28;45046;-71
2022/03/12 03:10:34;;;;;;;;;2.00;1.75;;;;;10.88;64.59;100853.78;5072181;28;46510;-71
2022/03/12 03:13:18;;;;;;;;;7.50;3.75;;;;;10.92;64.84;100856.53;5069428;28;45044;-71
2022/03/12 03:15:49;;;;;;;;;3.00;3.00;;;;;10.87;64.64;100853.75;5071822;28;45174;-72
2022/03/12 03:18:16;;;;;;;;;12.75;8.75;;;;;10.44;64.63;100765.34;5073750;28;45210;-71
2022/03/12 03:20:45;;;;;;;;;4.50;3.00;;;;;10.87;64.68;100845.72;5063969;28;45516;-72
2022/03/12 03:23:11;;;;;;;;;4.25;4.25;;;;;10.98;64.42;100852.25;5072564;28;45024;-72
2022/03/12 03:25:37;;;;;;;;;4.00;4.00;;;;;11.00;64.28;100855.88;5070916;28;44989;-71
2022/03/12 03:28:05;;;;;;;;;3.50;3.50;;;;;10.82;64.57;100828.66;5072632;28;45434;-71
2022/03/12 03:30:34;;;;;;;;;4.00;4.00;;;;;10.82;64.60;100826.00;5072140;28;46053;-71
2022/03/12 03:33:00;;;;;;;;;5.25;3.00;;;;;11.05;64.19;100864.03;5065719;28;45048;-72
2022/03/12 03:35:26;;;;;;;;;5.00;3.00;;;;;10.92;64.25;100829.81;5070115;28;45088;-70
2022/03/12 03:37:53;;;;;;;;;7.50;5.75;;;;;10.80;64.26;100820.59;5073176;28;45143;-71
2022/03/12 03:40:19;;;;;;;;;5.00;3.00;;;;;11.00;64.16;100849.63;5066790;28;46063;-72
2022/03/12 03:42:44;;;;;;;;;4.00;3.00;;;;;11.06;64.07;100858.72;5065562;28;45094;-72
2022/03/12 03:45:09;;;;;;;;;4.00;4.00;;;;;10.62;64.27;100780.94;5071994;28;44971;-71
2022/03/12 03:47:35;;;;;;;;;8.25;4.25;;;;;11.11;63.74;100856.16;5073152;28;45232;-72
2022/03/12 03:50:00;;;;;;;;;1.75;1.75;;;;;10.92;64.14;100841.41;5072935;28;44969;-70
2022/03/12 03:52:26;;;;;;;;;4.00;3.00;;;;;11.07;63.64;100870.34;5068187;28;45079;-72
2022/03/12 03:54:51;;;;;;;;;2.00;2.00;;;;;10.88;63.73;100836.84;5064786;28;45212;-71
2022/03/12 03:57:18;;;;;;;;;7.25;4.00;;;;;10.93;64.25;100853.00;5072451;28;44968;-71
2022/03/12 03:59:44;;;;;;;;;6.00;5.00;;;;;11.06;64.15;100871.19;5072048;28;45630;-73
2022/03/12 04:02:09;;;;;;;;;5.50;4.00;;;;;11.02;63.82;100866.59;5074099;28;45012;-70
2022/03/12 04:04:38;;;;;;;;;9.00;3.00;;;;;10.70;63.79;100810.53;5070086;28;45146;-71
2022/03/12 04:07:05;;;;;;;;;4.00;3.00;;;;;10.79;63.92;100833.91;5069651;28;45165;-71
2022/03/12 04:09:30;;;;;;;;;3.50;2.50;;;;;10.99;63.60;100879.91;5061459;28;45655;-72
2022/03/12 04:11:56;;;;;;;;;4.25;3.00;;;;;10.93;63.90;100869.94;5073693;28;44985;-71
2022/03/12 04:14:21;;;;;;;;;2.00;2.00;;;;;10.72;63.57;100843.53;5074209;28;45153;-71
2022/03/12 04:16:46;;;;;;;;;3.00;2.00;;;;;10.74;64.08;100860.53;5072663;28;45052;-72
2022/03/12 04:19:13;;;;;;;;;6.00;2.75;;;;;10.75;63.88;100878.38;5072151;28;45065;-71
2022/03/12 04:21:38;;;;;;;;;2.00;2.00;;;;;10.52;64.16;100832.31;5072153;28;45157;-72
2022/03/12 04:24:05;;;;;;;;;4.00;3.00;;;;;10.67;63.81;100853.19;5072091;28;45000;-72
2022/03/12 04:26:35;;;;;;;;;2.50;2.00;;;;;10.65;63.94;100866.53;5071955;28;44946;-72
2022/03/12 04:29:00;;;;;;;;;3.25;2.00;;;;;10.56;64.26;100847.56;5070666;28;45445;-72
2022/03/12 04:31:26;;;;;;;;;2.00;2.00;;;;;10.84;63.65;100875.06;5071884;28;45619;-72
2022/03/12 04:33:51;;;;;;;;;2.75;2.25;;;;;10.70;64.13;100861.31;5071498;28;45017;-70
2022/03/12 04:36:17;;;;;;;;;3.50;2.25;;;;;10.80;64.28;100879.41;5071862;28;45074;-71
2022/03/12 04:38:42;;;;;;;;;2.25;2.25;;;;;10.71;63.89;100871.16;5071854;28;49174;-71
2022/03/12 04:41:08;;;;;;;;;5.50;5.00;;;;;10.83;63.78;100887.50;5072076;28;45136;-72
2022/03/12 04:43:34;;;;;;;;;4.50;3.25;;;;;10.85;63.81;100892.91;5070601;28;45127;-71
2022/03/12 04:46:00;;;;;;;;;4.75;4.75;;;;;10.80;63.87;100884.75;5072153;28;45366;-71
2022/03/12 04:48:28;;;;;;;;;3.00;3.00;;;;;10.70;64.17;100880.00;5058122;28;46486;-70
2022/03/12 04:50:54;;;;;;;;;2.25;2.25;;;;;10.71;64.08;100892.53;5071576;28;45189;-71
2022/03/12 04:53:21;;;;;;;;;5.00;4.00;;;;;10.67;63.78;100902.22;5077439;27;45028;-72
2022/03/12 04:55:47;;;;;;;;;3.50;2.00;;;;;10.48;63.88;100881.19;5071708;28;45012;-70
2022/03/12 04:58:13;;;;;;;;;4.00;2.00;;;;;10.49;64.53;100886.56;5071331;28;45350;-72
2022/03/12 05:00:40;;;;;;;;;3.25;1.50;;;;;10.36;64.22;100871.06;5071874;28;44989;-70
2022/03/12 05:03:10;;;;;;;;;3.00;3.00;;;;;10.52;64.87;100909.78;5070226;28;45151;-70
2022/03/12 05:05:43;;;;;;;;;3.00;1.00;;;;;10.36;64.52;100892.41;5071866;28;45187;-70
2022/03/12 05:08:14;;;;;;;;;6.25;4.50;;;;;10.50;64.10;100906.16;5065263;28;46372;-71
2022/03/12 05:10:44;;;;;;;;;3.00;2.00;;;;;10.28;63.79;100868.13;5071044;28;44893;-71
2022/03/12 05:13:12;;;;;;;;;3.50;2.00;;;;;10.56;64.02;100919.72;5071988;28;45136;-70
2022/03/12 05:15:38;;;;;;;;;2.50;2.50;;;;;10.50;64.21;100916.84;5075168;28;45109;-71
2022/03/12 05:18:07;;;;;;;;;3.00;3.00;;;;;10.42;64.05;100897.91;5075153;28;45654;-71
2022/03/12 05:20:35;;;;;;;;;4.25;3.00;;;;;10.62;64.38;100916.28;5073836;28;45029;-70
2022/03/12 05:23:01;;;;;;;;;2.50;2.50;;;;;10.53;64.12;100892.00;5074261;28;45088;-70
2022/03/12 05:25:29;;;;;;;;;4.50;2.00;;;;;10.69;63.51;100920.94;5074695;28;45272;-70
2022/03/12 05:27:55;;;;;;;;;2.50;2.50;;;;;10.35;63.50;100869.22;5064586;28;45119;-71
2022/03/12 05:30:21;;;;;;;;;1.50;1.50;;;;;10.59;63.64;100909.13;5065078;28;45105;-70
2022/03/12 05:32:47;;;;;;;;;4.00;2.00;;;;;10.59;63.71;100910.84;5075032;28;44938;-72
2022/03/12 05:35:15;;;;;;;;;4.25;4.25;;;;;10.72;63.76;100933.50;5073990;28;45016;-70
2022/03/12 05:37:41;;;;;;;;;4.00;3.00;;;;;10.60;63.32;100905.56;5062288;28;45917;-71
2022/03/12 05:40:09;;;;;;;;;4.25;3.00;;;;;10.59;63.66;100901.09;5060746;28;45136;-70
2022/03/12 05:42:35;;;;;;;;;3.00;3.00;;;;;10.61;63.61;100891.34;5074265;28;44965;-70
2022/03/12 05:45:08;;;;;;;;;4.50;3.00;;;;;10.82;63.12;100936.50;5074212;28;45102;-71
2022/03/12 05:47:36;;;;;;;;;3.75;2.50;;;;;10.81;63.19;100934.66;5074183;28;45965;-71
2022/03/12 05:50:03;;;;;;;;;7.00;4.00;;;;;10.80;63.28;100931.94;5071783;28;44945;-72
2022/03/12 05:52:29;;;;;;;;;5.00;2.75;;;;;10.78;63.16;100939.94;5073932;28;45099;-71
2022/03/12 05:54:54;;;;;;;;;2.00;1.75;;;;;10.82;63.05;100943.59;5074559;28;44960;-71
2022/03/12 05:57:19;;;;;;;;;3.50;3.00;;;;;10.83;62.79;100948.97;5078796;28;48749;-71
2022/03/12 05:59:48;;;;;;;;;2.50;2.50;;;;;10.60;63.38;100918.94;5073488;28;45107;-72
2022/03/12 06:02:13;;;;;;;;;5.00;3.00;;;;;10.52;62.85;100885.75;5074564;28;45251;-72
2022/03/12 06:04:38;;;;;;;;;6.50;4.00;;;;;10.75;63.21;100936.28;5074273;28;45480;-71
2022/03/12 06:07:04;;;;;;;;;2.75;2.75;;;;;10.82;63.27;100947.19;5074388;28;46106;-72
2022/03/12 06:09:30;;;;;;;;;4.25;2.00;;;;;10.76;63.44;100938.97;5065006;28;45102;-70
2022/03/12 06:11:56;;;;;;;;;1.75;1.75;;;;;10.72;63.13;100918.38;5065490;28;45082;-71
2022/03/12 06:14:22;;;;;;;;;3.00;2.00;;;;;10.87;62.72;100956.25;5073841;28;45213;-72
2022/03/12 06:16:48;;;;;;;;;2.25;2.25;;;;;10.63;63.04;100913.66;5073371;28;45123;-72
2022/03/12 06:19:21;;;;;;;;;5.00;3.00;;;;;10.31;63.08;100868.22;5074370;28;45099;-72
2022/03/12 06:21:47;;;;;;;;;5.50;4.00;;;;;10.47;63.00;100903.41;5077801;28;45216;-70
2022/03/12 06:24:13;;;;;;;;;2.50;2.50;;;;;10.31;64.27;100910.00;5077618;28;45044;-70
2022/03/12 06:26:39;;;;;;;;;7.75;6.50;;;;;10.74;63.28;100956.75;5068423;27;45336;-71
2022/03/12 06:29:11;;;;;;;;;6.75;6.25;;;;;10.61;62.79;100931.44;5061211;28;45210;-70
2022/03/12 06:31:37;;;;;;;;;11.75;5.00;;;;;10.65;63.02;100964.47;5073724;28;45185;-72
2022/03/12 06:34:02;;;;;;;;;4.50;3.50;;;;;10.66;62.94;100983.25;5073057;28;45120;-72
2022/03/12 06:36:28;;;;;;;;;3.00;3.00;;;;;10.38;63.57;100960.13;5073599;28;46625;-71
2022/03/12 06:38:53;;;;;;;;;14.25;12.25;;;;;10.54;63.65;100988.19;5073427;28;45286;-71
2022/03/12 06:41:20;;;;;;;;;6.75;3.75;;;;;10.61;63.61;100991.97;5061783;28;45232;-71
2022/03/12 06:43:45;;;;;;;;;3.25;3.00;;;;;10.63;62.85;100995.59;5071575;28;44987;-70
2022/03/12 06:46:14;;;;;;;;;7.25;4.50;;;;;10.30;62.83;100929.59;5072075;28;45507;-73
2022/03/12 06:48:40;;;;;;;;;3.00;3.00;;;;;10.69;62.67;100987.75;5067375;28;45086;-71
2022/03/12 06:51:06;;;;;;;;;2.75;2.00;;;;;10.36;62.99;100940.50;5072121;28;45109;-72
2022/03/12 06:53:31;;;;;;;;;4.00;3.00;;;;;10.51;63.29;100983.69;5072594;28;44953;-72
2022/03/12 06:55:58;;;;;;;;;4.00;2.50;;;;;10.70;62.76;101011.84;5072929;28;45716;-72
2022/03/12 06:58:24;;;;;;;;;5.50;2.00;;;;;10.67;62.66;101019.81;5073070;28;45071;-72
2022/03/12 07:00:49;;;;;;;;;4.25;4.25;;;;;10.49;62.93;100993.44;5073721;28;45337;-71
2022/03/12 07:03:14;;;;;;;;;5.50;3.50;;;;;10.64;62.71;101034.81;5073724;28;45189;-71
2022/03/12 07:05:40;;;;;;;;;3.00;3.00;;;;;10.46;62.66;101008.44;5070609;28;45118;-72
2022/03/12 07:08:05;;;;;;;;;6.75;4.00;;;;;10.35;62.97;101008.09;5071677;28;45141;-72
2022/03/12 07:10:31;;;;;;;;;4.75;3.00;;;;;10.16;62.84;100979.88;5066115;27;45191;-72
2022/03/12 07:12:56;;;;;;;;;3.25;3.25;;;;;10.43;63.72;101037.75;5071993;28;45164;-71
2022/03/12 07:15:22;;;;;;;;;3.00;3.00;;;;;10.46;64.04;101045.81;5073565;28;45721;-72
2022/03/12 07:17:47;;;;;;;;;4.00;4.00;;;;;10.51;63.50;101052.25;5063926;28;45067;-71
2022/03/12 07:20:14;;;;;;;;;4.50;3.50;;;;;10.50;63.35;101045.97;5069390;28;45080;-72
2022/03/12 07:22:40;;;;;;;;;6.50;5.00;;;;;10.41;63.08;101023.41;5073211;28;45280;-73
2022/03/12 07:25:07;;;;;;;;;3.75;3.00;;;;;10.12;62.80;100956.63;5068413;28;45309;-73
2022/03/12 07:27:32;;;;;;;;;13.75;12.25;;;;;10.67;63.39;101037.56;5064772;28;45128;-73
2022/03/12 07:30:00;;;;;;;;;4.00;4.00;;;;;10.64;62.94;101042.81;5043080;28;45524;-72
2022/03/12 07:32:28;;;;;;;;;0.75;0.75;;;;;10.70;62.54;101053.72;5049572;28;45467;-72
2022/03/12 07:34:54;;;;;;;;;4.00;4.00;;;;;10.63;62.75;101052.63;5067779;28;46610;-71
2022/03/12 07:37:21;;;;;;;;;4.50;4.50;;;;;10.59;62.89;101049.78;5051582;28;45370;-72
2022/03/12 07:39:47;;;;;;;;;5.25;5.00;;;;;10.59;63.28;101064.06;5069493;28;45071;-72
2022/03/12 07:42:13;;;;;;;;;10.50;7.75;;;;;10.63;63.23;101044.59;5069162;28;45514;-73
2022/03/12 07:44:39;;;;;;;;;12.50;9.25;;;;;10.45;62.92;101010.19;5058351;28;45211;-72
2022/03/12 07:47:05;;;;;;;;;5.25;5.25;;;;;10.63;62.51;101038.34;5057072;28;45548;-72
2022/03/12 07:49:30;;;;;;;;;4.00;4.00;;;;;10.76;62.45;101069.94;5045134;28;45439;-72
2022/03/12 07:51:56;;;;;;;;;5.50;4.25;;;;;10.69;62.72;101046.53;5054157;28;45480;-72
2022/03/12 07:54:21;;;;;;;;;4.50;4.50;;;;;10.78;63.02;101059.28;5058132;28;45871;-72
2022/03/12 07:56:47;;;;;;;;;2.25;2.25;;;;;10.79;61.99;101047.72;5053842;28;45369;-73
2022/03/12 07:59:12;;;;;;;;;8.00;6.25;;;;;10.48;62.68;101004.97;5054275;28;45297;-71
2022/03/12 08:01:38;;;;;;;;;5.25;5.00;;;;;10.73;62.37;101047.56;5056679;28;45429;-72
2022/03/12 08:04:05;;;;;;;;;4.75;4.75;;;;;10.77;62.27;101052.13;5054115;28;46301;-73
2022/03/12 08:06:31;;;;;;;;;4.00;4.00;;;;;10.65;62.01;101026.84;5061658;28;45410;-73
2022/03/12 08:08:57;;;;;;;;;5.50;5.25;;;;;10.98;62.55;101084.84;5063732;28;45148;-73
2022/03/12 08:11:29;;;;;;;;;4.00;4.00;;;;;10.75;61.82;101041.38;5056864;28;45388;-74
2022/03/12 08:13:59;;;;;;;;;6.50;4.00;;;;;11.10;61.91;101103.03;5058483;28;45398;-72
2022/03/12 08:16:25;;;;;;;;;5.00;4.00;;;;;11.13;61.70;101110.25;5052543;28;45552;-72
2022/03/12 08:18:50;;;;;;;;;12.50;10.50;;;;;11.06;61.79;101107.38;5046007;28;45539;-71
2022/03/12 08:21:16;;;;;;;;;8.00;4.50;;;;;10.86;61.56;101061.34;5056805;28;45608;-74
2022/03/12 08:23:41;;;;;;;;;6.25;5.00;;;;;11.11;61.91;101102.16;5052657;28;47850;-73
2022/03/12 08:26:07;;;;;;;;;26.00;20.00;;;;;11.13;61.76;101112.91;5052013;28;45414;-73
2022/03/12 08:28:34;;;;;;;;;8.25;7.00;;;;;10.67;62.39;101033.16;5042466;28;45307;-72
2022/03/12 08:31:01;;;;;;;;;6.00;4.25;;;;;10.90;62.46;101094.41;5053742;28;45571;-74
2022/03/12 08:33:27;;;;;;;;;6.75;6.00;;;;;11.07;61.70;101105.63;5059643;28;45718;-73
2022/03/12 08:35:53;;;;;;;;;7.00;5.00;;;;;10.97;61.54;101075.03;5048026;28;45392;-71
2022/03/12 08:38:19;;;;;;;;;5.00;4.00;;;;;11.20;61.41;101114.91;5047311;28;46049;-72
2022/03/12 08:40:46;;;;;;;;;6.25;6.25;;;;;11.24;61.82;101131.09;5057375;28;45378;-72
2022/03/12 08:43:11;;;;;;;;;6.00;4.75;;;;;11.20;61.22;101120.25;5061036;28;45712;-73
2022/03/12 08:45:37;;;;;;;;;9.00;6.75;;;;;11.31;61.83;101132.19;5050522;28;45581;-74
2022/03/12 08:48:02;;;;;;;;;3.00;3.00;;;;;11.36;61.39;101126.97;5052858;28;45370;-75
2022/03/12 08:50:27;;;;;;;;;9.75;7.50;;;;;11.40;61.64;101118.16;5053479;28;45508;-73
2022/03/12 08:52:53;;;;;;;;;6.00;6.00;;;;;11.20;61.93;101075.72;5055196;28;46410;-73
2022/03/12 08:55:18;;;;;;;;;5.50;5.50;;;;;11.48;61.26;101110.34;5050811;28;45398;-73
2022/03/12 08:57:44;;;;;;;;;11.00;11.00;;;;;11.55;60.89;101113.25;5063140;28;45998;-73
2022/03/12 09:00:12;;;;;;;;;8.00;4.25;;;;;11.58;60.87;101109.75;5050258;28;45481;-73
2022/03/12 09:02:39;;;;;;;;;9.25;7.00;;;;;11.37;61.28;101073.50;5044342;28;45986;-73
2022/03/12 09:05:06;;;;;;;;;13.25;10.50;;;;;11.69;60.29;101123.44;5045171;28;45617;-73
2022/03/12 09:07:32;;;;;;;;;5.50;3.00;;;;;11.67;60.98;101110.00;5071977;28;45414;-74
2022/03/12 09:09:58;;;;;;;;;8.25;5.75;;;;;11.67;61.66;101117.16;5060388;28;45739;-73
2022/03/12 09:12:23;;;;;;;;;8.75;6.75;;;;;11.43;60.88;101084.41;5046874;28;46077;-73
2022/03/12 09:14:49;;;;;;;;;7.75;5.00;;;;;11.22;61.16;101027.63;5075683;27;45512;-72
2022/03/12 09:17:14;;;;;;;;;6.00;6.00;;;;;11.43;60.64;101060.31;5052071;27;45119;-72
2022/03/12 09:19:40;;;;;;;;;7.00;4.50;;;;;11.76;60.23;101098.66;5057312;28;45075;-73
2022/03/12 09:22:05;;;;;;;;;6.50;4.75;;;;;11.89;60.77;101107.91;5062846;28;45494;-73
2022/03/12 09:24:31;;;;;;;;;7.25;4.50;;;;;11.91;59.85;101095.47;5048240;28;44895;-74
2022/03/12 09:26:57;;;;;;;;;6.25;4.75;;;;;11.32;59.79;101005.59;5054623;28;45288;-73
2022/03/12 09:29:22;;;;;;;;;5.00;5.00;;;;;11.88;60.61;101109.69;5047199;28;45182;-73
2022/03/12 09:31:48;;;;;;;;;7.25;4.00;;;;;11.97;60.32;101109.97;5061743;28;46254;-72
2022/03/12 09:34:14;;;;;;;;;6.50;6.50;;;;;11.87;60.95;101128.41;5050416;28;44995;-72
2022/03/12 09:36:40;;;;;;;;;12.25;11.25;;;;;11.87;61.98;101115.91;5051927;28;45274;-73
2022/03/12 09:39:06;;;;;;;;;13.25;12.25;;;;;11.95;60.73;101118.84;5061294;28;45069;-72
2022/03/12 09:41:33;;;;;;;;;9.25;6.00;;;;;11.91;61.63;101123.22;5069601;28;47414;-72
2022/03/12 09:44:00;;;;;;;;;6.00;6.00;;;;;11.62;61.38;101039.41;5052388;28;45253;-72
2022/03/12 09:46:25;;;;;;;;;6.00;6.00;;;;;12.05;60.83;101117.31;5049780;28;45535;-73
2022/03/12 09:48:50;;;;;;;;;5.25;5.25;;;;;12.08;60.82;101107.56;5064558;28;45194;-73
2022/03/12 09:51:16;;;;;;;;;6.25;6.00;;;;;11.93;60.78;101059.00;5065801;28;44897;-73
2022/03/12 09:53:41;;;;;;;;;12.25;9.00;;;;;12.06;61.57;101081.59;5060482;28;45033;-71
2022/03/12 09:56:07;;;;;;;;;6.75;5.00;;;;;12.29;61.08;101100.94;5067999;28;44899;-73
2022/03/12 09:58:32;;;;;;;;;7.50;5.75;;;;;12.30;60.47;101097.41;5059017;28;45145;-70
2022/03/12 10:00:58;;;;;;;;;8.25;6.00;;;;;12.18;61.54;101095.34;5054548;28;45963;-73
2022/03/12 10:03:23;;;;;;;;;6.50;5.00;;;;;12.19;60.75;101075.69;5069812;28;45069;-72
2022/03/12 10:05:49;;;;;;;;;19.25;14.75;;;;;12.26;60.29;101066.97;5073771;28;45221;-73
2022/03/12 10:08:15;;;;;;;;;7.50;6.25;;;;;12.26;60.06;101049.97;5061982;28;45532;-72
2022/03/12 10:10:40;;;;;;;;;7.25;4.75;;;;;12.58;60.14;101104.34;5068081;28;45552;-73
2022/03/12 10:13:06;;;;;;;;;6.00;4.00;;;;;12.44;59.44;101082.59;5072484;28;45583;-73
2022/03/12 10:15:31;;;;;;;;;5.25;5.25;;;;;12.29;58.84;101048.28;5066429;28;45196;-72
2022/03/12 10:17:57;;;;;;;;;3.00;3.00;;;;;12.46;59.53;101069.22;5065932;28;45162;-73
2022/03/12 10:20:22;;;;;;;;;9.75;6.75;;;;;12.78;59.22;101110.16;5071654;28;45938;-73
2022/03/12 10:22:48;;;;;;;;;6.25;6.25;;;;;12.79;58.89;101089.66;5075085;28;45141;-72
2022/03/12 10:25:14;;;;;;;;;6.50;6.50;;;;;12.68;59.06;101058.09;5071792;27;45067;-72
2022/03/12 10:27:40;;;;;;;;;6.50;5.00;;;;;12.82;59.25;101066.47;5061590;27;45096;-74
2022/03/12 10:30:07;;;;;;;;;5.50;4.25;;;;;12.78;59.06;101048.50;5061581;28;45345;-72
2022/03/12 10:32:41;;;;;;;;;9.25;9.25;;;;;13.05;59.10;101082.16;5057941;28;45185;-73
2022/03/12 10:35:08;;;;;;;;;7.25;5.75;;;;;13.16;58.53;101095.81;5053007;28;45293;-72
2022/03/12 10:37:34;;;;;;;;;9.50;8.50;;;;;12.71;58.26;101006.34;5060829;28;45496;-73
2022/03/12 10:40:21;;;;;;;;;2.00;2.00;;;;;13.20;57.63;101078.88;5070281;28;45839;-73
2022/03/12 10:42:54;;;;;;;;;7.00;6.25;;;;;13.27;57.94;101099.63;5063111;28;45204;-72
2022/03/12 10:45:22;;;;;;;;;11.00;7.75;;;;;13.11;57.63;101062.63;5047535;28;45333;-72
2022/03/12 10:47:56;;;;;;;;;7.00;5.50;;;;;13.29;57.58;101100.56;5060396;27;45195;-73
2022/03/12 10:50:39;;;;;;;;;7.00;5.25;;;;;13.29;57.93;101095.19;5048243;27;45603;-72
2022/03/12 10:53:06;;;;;;;;;6.00;6.00;;;;;13.33;57.74;101099.78;5051146;28;45470;-73
2022/03/12 10:55:37;;;;;;;;;8.25;6.00;;;;;13.16;57.84;101050.19;5045396;28;45519;-74
2022/03/12 10:58:28;;;;;;;;;6.75;6.00;;;;;13.14;57.69;101042.13;5048185;28;45469;-72
2022/03/12 11:00:56;;;;;;;;;8.00;5.00;;;;;13.36;57.26;101077.47;5054734;28;45889;-72
2022/03/12 11:03:27;;;;;;;;;14.50;6.50;;;;;13.42;57.67;101088.34;5061627;28;45247;-73
2022/03/12 11:05:54;;;;;;;;;8.75;6.25;;;;;13.42;58.19;101075.81;5058786;28;45386;-73
2022/03/12 11:08:25;;;;;;;;;11.50;8.50;;;;;13.18;56.93;101018.94;5060699;28;45530;-72
2022/03/12 11:11:14;;;;;;;;;9.25;7.00;;;;;13.44;57.32;101071.38;5040271;28;47093;-70
2022/03/12 11:13:47;;;;;;;;;8.25;5.50;;;;;13.43;57.26;101072.25;5045688;27;45226;-72
2022/03/12 11:16:28;;;;;;;;;6.75;6.75;;;;;13.50;57.29;101075.97;5064821;28;45287;-71
2022/03/12 11:18:53;;;;;;;;;9.25;8.50;;;;;13.59;57.66;101067.19;5059842;28;45119;-69
2022/03/12 11:21:40;;;;;;;;;14.25;10.25;;;;;13.55;57.24;101043.84;5062098;28;46668;-70
2022/03/12 11:24:13;;;;;;;;;11.75;6.50;;;;;13.67;57.18;101061.97;5055798;28;45177;-72